createdAt,value
2018-01-22T00:02:22.682Z,32.50
2018-01-22T00:04:50.207Z,36.47
2018-01-22T00:07:17.702Z,32.17
2018-01-22T00:09:45.255Z,28.73
2018-01-22T00:12:13.201Z,36.40
2018-01-22T00:14:40.791Z,30.73
2018-01-22T00:17:08.312Z,31.20
2018-01-22T00:19:37.548Z,28.17
2018-01-22T00:22:05.073Z,30.93
2018-01-22T00:24:32.644Z,33.07
2018-01-22T00:27:00.171Z,31.80
2018-01-22T00:29:27.699Z,35.40
2018-01-22T00:31:55.201Z,33.70
2018-01-22T00:34:23.492Z,31.27
2018-01-22T00:36:51.754Z,32.23
2018-01-22T00:39:20.079Z,31.87
2018-01-22T00:41:47.589Z,29.93
2018-01-22T00:44:15.153Z,33.07
2018-01-22T00:46:42.638Z,30.03
2018-01-22T00:49:10.180Z,30.03
2018-01-22T00:51:38.326Z,27.90
2018-01-22T00:54:06.604Z,29.00
2018-01-22T00:56:34.854Z,29.40
2018-01-22T00:59:02.381Z,30.47
2018-01-22T01:01:30.655Z,29.90
2018-01-22T01:03:58.205Z,31.50
2018-01-22T01:06:25.781Z,34.63
2018-01-22T01:08:53.285Z,33.30
2018-01-22T01:11:20.794Z,28.97
2018-01-22T01:13:48.324Z,30.73
2018-01-22T01:16:15.977Z,30.37
2018-01-22T01:18:44.292Z,29.73
2018-01-22T01:21:11.831Z,27.80
2018-01-22T01:23:39.364Z,28.77
2018-01-22T01:26:07.531Z,27.40
2018-01-22T01:28:35.063Z,27.40
2018-01-22T01:31:04.114Z,29.03
2018-01-22T01:33:31.606Z,33.33
2018-01-22T01:35:59.120Z,31.17
2018-01-22T01:38:27.431Z,32.07
2018-01-22T01:40:55.035Z,29.90
2018-01-22T01:43:22.575Z,26.53
2018-01-22T01:45:50.083Z,23.27
2018-01-22T01:48:17.711Z,27.53
2018-01-22T01:50:45.270Z,22.53
2018-01-22T01:53:13.559Z,27.50
2018-01-22T01:55:42.511Z,27.83
2018-01-22T01:58:10.047Z,26.00
2018-01-22T02:00:37.574Z,25.30
2018-01-22T02:03:05.191Z,23.80
2018-01-22T02:05:32.708Z,22.55
2018-01-22T02:08:00.343Z,26.63
2018-01-22T02:10:27.983Z,24.27
2018-01-22T02:12:56.428Z,26.17
2018-01-22T02:15:24.004Z,24.17
2018-01-22T02:17:51.538Z,27.27
2018-01-22T02:20:19.087Z,28.13
2018-01-22T02:22:47.395Z,25.87
2018-01-22T02:25:14.902Z,29.10
2018-01-22T02:27:43.022Z,27.30
2018-01-22T02:30:11.122Z,27.20
2018-01-22T02:32:39.405Z,27.40
2018-01-22T02:35:06.943Z,25.93
2018-01-22T02:37:34.477Z,32.43
2018-01-22T02:40:01.980Z,26.10
2018-01-22T02:42:29.496Z,26.77
2018-01-22T02:44:57.781Z,29.50
2018-01-22T02:47:26.242Z,31.20
2018-01-22T02:49:53.740Z,33.50
2018-01-22T02:52:22.054Z,32.10
2018-01-22T02:54:49.720Z,29.67
2018-01-22T02:57:17.277Z,35.90
2018-01-22T02:59:45.536Z,32.53
2018-01-22T03:02:13.060Z,34.00
2018-01-22T03:04:40.618Z,39.20
2018-01-22T03:07:08.167Z,37.03
2018-01-22T03:09:35.702Z,35.87
2018-01-22T03:12:03.222Z,40.57
2018-01-22T03:14:31.549Z,37.20
2018-01-22T03:16:59.077Z,33.50
2018-01-22T03:19:26.597Z,33.93
2018-01-22T03:21:54.117Z,32.47
2018-01-22T03:24:22.392Z,28.63
2018-01-22T03:26:50.670Z,30.33
2018-01-22T03:29:19.053Z,32.60
2018-01-22T03:31:46.596Z,35.80
2018-01-22T03:34:14.170Z,32.33
2018-01-22T03:36:41.718Z,31.00
2018-01-22T03:39:09.288Z,30.33
2018-01-22T03:41:36.784Z,34.17
2018-01-22T03:44:04.311Z,36.43
2018-01-22T03:46:32.594Z,34.37
2018-01-22T03:49:00.862Z,40.10
2018-01-22T03:51:29.105Z,35.13
2018-01-22T03:53:56.717Z,36.17
2018-01-22T03:56:24.221Z,39.70
2018-01-22T03:58:52.492Z,37.23
2018-01-22T04:01:20.053Z,36.53
2018-01-22T04:03:47.622Z,38.47
2018-01-22T04:06:15.129Z,39.83
2018-01-22T04:08:42.661Z,38.23
2018-01-22T04:11:10.156Z,42.77
2018-01-22T04:13:38.563Z,41.17
2018-01-22T04:16:06.085Z,39.40
2018-01-22T04:18:33.596Z,40.30
2018-01-22T04:21:02.921Z,41.67
2018-01-22T04:23:30.438Z,41.93
2018-01-22T04:25:58.005Z,36.27
2018-01-22T04:28:25.512Z,40.43
2018-01-22T04:30:53.876Z,39.90
2018-01-22T04:33:21.417Z,37.93
2018-01-22T04:35:48.947Z,38.87
2018-01-22T04:38:17.223Z,45.20
2018-01-22T04:40:44.727Z,45.40
2018-01-22T04:43:12.274Z,39.47
2018-01-22T04:45:40.572Z,38.77
2018-01-22T04:48:08.893Z,35.47
2018-01-22T04:50:36.423Z,44.33
2018-01-22T04:53:04.692Z,39.27
2018-01-22T04:55:32.190Z,45.10
2018-01-22T04:57:59.710Z,41.80
2018-01-22T05:00:27.355Z,42.77
2018-01-22T05:02:54.915Z,48.60
2018-01-22T05:05:22.429Z,42.07
2018-01-22T05:07:49.947Z,44.30
2018-01-22T05:10:17.474Z,41.77
2018-01-22T05:12:45.164Z,44.40
2018-01-22T05:15:13.445Z,46.57
2018-01-22T05:17:41.055Z,39.90
2018-01-22T05:20:08.598Z,42.53
2018-01-22T05:22:36.927Z,41.63
2018-01-22T05:25:04.438Z,39.37
2018-01-22T05:27:31.951Z,46.60
2018-01-22T05:30:00.232Z,45.27
2018-01-22T05:32:28.535Z,43.07
2018-01-22T05:34:56.040Z,43.80
2018-01-22T05:37:24.188Z,44.33
2018-01-22T05:39:52.445Z,40.83
2018-01-22T05:42:19.965Z,43.67
2018-01-22T05:44:47.476Z,41.43
2018-01-22T05:47:15.183Z,43.60
2018-01-22T05:49:43.456Z,40.63
2018-01-22T05:52:10.965Z,42.40
2018-01-22T05:54:38.536Z,39.60
2018-01-22T05:57:06.087Z,42.47
2018-01-22T05:59:34.345Z,36.30
2018-01-22T06:02:01.908Z,36.60
2018-01-22T06:04:29.405Z,39.17
2018-01-22T06:06:57.705Z,40.03
2018-01-22T06:09:25.218Z,39.37
2018-01-22T06:11:52.774Z,45.13
2018-01-22T06:14:20.281Z,41.83
2018-01-22T06:16:47.799Z,37.97
2018-01-22T06:19:15.472Z,40.97
2018-01-22T06:21:42.963Z,43.30
2018-01-22T06:24:11.506Z,39.10
2018-01-22T06:26:39.010Z,41.83
2018-01-22T06:29:06.571Z,39.07
2018-01-22T06:31:34.094Z,39.20
2018-01-22T06:34:01.616Z,37.67
2018-01-22T06:36:29.137Z,40.20
2018-01-22T06:38:56.702Z,42.60
2018-01-22T06:41:24.259Z,42.37
2018-01-22T06:43:51.986Z,38.57
2018-01-22T06:46:20.255Z,47.47
2018-01-22T06:48:47.816Z,43.17
2018-01-22T06:51:15.338Z,40.73
2018-01-22T06:53:42.920Z,38.87
2018-01-22T06:56:10.442Z,36.83
2018-01-22T06:58:38.184Z,52.67
2018-01-22T07:01:05.721Z,38.47
2018-01-22T07:03:33.860Z,42.77
2018-01-22T07:06:01.369Z,37.47
2018-01-22T07:08:28.894Z,39.03
2018-01-22T07:10:56.432Z,36.83
2018-01-22T07:13:23.964Z,43.20
2018-01-22T07:15:52.270Z,37.77
2018-01-22T07:18:20.615Z,34.87
2018-01-22T07:20:48.109Z,37.80
2018-01-22T07:23:15.739Z,39.33
2018-01-22T07:25:43.996Z,43.60
2018-01-22T07:28:11.509Z,38.43
2018-01-22T07:30:39.331Z,38.53
2018-01-22T07:33:07.627Z,41.83
2018-01-22T07:35:35.929Z,34.70
2018-01-22T07:38:03.446Z,38.63
2018-01-22T07:40:31.051Z,38.70
2018-01-22T07:42:59.346Z,35.37
2018-01-22T07:45:27.688Z,36.33
2018-01-22T07:47:55.215Z,37.83
2018-01-22T07:50:22.788Z,34.23
2018-01-22T07:52:50.326Z,36.13
2018-01-22T07:55:17.945Z,33.57
2018-01-22T07:57:45.569Z,37.67
2018-01-22T08:00:13.172Z,33.03
2018-01-22T08:02:41.470Z,36.73
2018-01-22T08:05:08.988Z,34.40
2018-01-22T08:07:37.348Z,31.43
2018-01-22T08:10:04.887Z,34.33
2018-01-22T08:12:33.278Z,31.17
2018-01-22T08:15:02.407Z,34.80
2018-01-22T08:17:29.940Z,35.20
2018-01-22T08:19:57.450Z,34.90
2018-01-22T08:22:24.956Z,30.97
2018-01-22T08:24:53.137Z,35.00
2018-01-22T08:27:20.660Z,34.40
2018-01-22T08:29:49.036Z,35.00
2018-01-22T08:32:16.548Z,34.90
2018-01-22T08:34:44.075Z,34.77
2018-01-22T08:37:11.708Z,33.80
2018-01-22T08:39:39.244Z,39.47
2018-01-22T08:42:06.853Z,38.37
2018-01-22T08:44:34.365Z,38.73
2018-01-22T08:47:01.905Z,32.10
2018-01-22T08:49:29.425Z,31.43
2018-01-22T08:51:57.022Z,30.80
2018-01-22T08:54:24.528Z,34.90
2018-01-22T08:56:52.100Z,39.07
2018-01-22T08:59:19.621Z,36.93
2018-01-22T09:01:47.208Z,31.53
2018-01-22T09:04:14.713Z,31.20
2018-01-22T09:06:42.310Z,32.63
2018-01-22T09:09:09.865Z,39.30
2018-01-22T09:11:37.437Z,38.67
2018-01-22T09:14:04.997Z,36.70
2018-01-22T09:16:32.520Z,36.47
2018-01-22T09:19:00.052Z,31.53
2018-01-22T09:21:27.565Z,33.40
2018-01-22T09:23:55.193Z,33.40
2018-01-22T09:26:22.732Z,27.87
2018-01-22T09:28:50.218Z,29.73
2018-01-22T09:31:17.785Z,34.77
2018-01-22T09:33:45.287Z,27.77
2018-01-22T09:36:12.822Z,29.70
2018-01-22T09:38:40.471Z,30.63
2018-01-22T09:41:08.000Z,28.10
2018-01-22T09:43:35.514Z,27.73
2018-01-22T09:46:03.053Z,26.77
2018-01-22T09:48:30.575Z,27.43
2018-01-22T09:50:58.894Z,27.67
2018-01-22T09:53:26.467Z,28.90
2018-01-22T09:55:53.986Z,25.10
2018-01-22T09:58:22.272Z,29.43
2018-01-22T10:00:49.798Z,29.33
2018-01-22T10:03:17.332Z,31.23
2018-01-22T10:05:44.942Z,27.57
2018-01-22T10:08:12.559Z,28.73
2018-01-22T10:10:40.204Z,35.17
2018-01-22T10:13:07.712Z,37.07
2018-01-22T10:15:35.391Z,29.57
2018-01-22T10:18:02.951Z,28.80
2018-01-22T10:20:30.602Z,32.10
2018-01-22T10:22:58.249Z,34.47
2018-01-22T10:25:25.763Z,27.47
2018-01-22T10:27:53.279Z,26.90
2018-01-22T10:30:20.814Z,26.00
2018-01-22T10:32:48.526Z,28.80
2018-01-22T10:35:16.198Z,27.30
2018-01-22T10:37:43.837Z,31.23
2018-01-22T10:40:11.391Z,25.30
2018-01-22T10:42:39.708Z,29.20
2018-01-22T10:45:08.006Z,27.53
2018-01-22T10:47:35.520Z,26.80
2018-01-22T10:50:03.066Z,27.60
2018-01-22T10:52:30.589Z,28.40
2018-01-22T10:54:58.138Z,28.97
2018-01-22T10:57:25.661Z,27.10
2018-01-22T10:59:53.189Z,25.00
2018-01-22T11:02:20.729Z,30.17
2018-01-22T11:04:48.302Z,30.07
2018-01-22T11:07:15.818Z,25.33
2018-01-22T11:09:44.103Z,25.40
2018-01-22T11:12:13.035Z,24.33
2018-01-22T11:14:40.635Z,26.77
2018-01-22T11:17:08.185Z,25.93
2018-01-22T11:19:35.734Z,28.90
2018-01-22T11:22:03.263Z,29.07
2018-01-22T11:24:30.761Z,23.60
2018-01-22T11:26:59.084Z,28.50
2018-01-22T11:29:26.589Z,32.33
2018-01-22T11:31:54.749Z,25.23
2018-01-22T11:34:22.273Z,23.73
2018-01-22T11:36:49.776Z,25.20
2018-01-22T11:39:17.339Z,24.93
2018-01-22T11:41:44.899Z,31.20
2018-01-22T11:44:13.181Z,30.77
2018-01-22T11:46:41.450Z,26.60
2018-01-22T11:49:09.073Z,27.30
2018-01-22T11:51:36.569Z,28.03
2018-01-22T11:54:04.203Z,25.17
2018-01-22T11:56:31.698Z,26.00
2018-01-22T11:58:59.250Z,28.90
2018-01-22T12:01:26.877Z,27.83
2018-01-22T12:03:54.399Z,30.77
2018-01-22T12:06:22.023Z,26.20
2018-01-22T12:08:50.364Z,28.93
2018-01-22T12:11:17.896Z,27.50
2018-01-22T12:13:45.620Z,25.83
2018-01-22T12:16:13.133Z,31.40
2018-01-22T12:18:40.728Z,27.23
2018-01-22T12:21:09.008Z,29.03
2018-01-22T12:23:37.370Z,26.67
2018-01-22T12:26:05.303Z,28.97
2018-01-22T12:28:32.876Z,26.73
2018-01-22T12:31:00.460Z,24.10
2018-01-22T12:33:28.000Z,25.10
2018-01-22T12:35:56.256Z,26.60
2018-01-22T12:38:23.770Z,25.43
2018-01-22T12:40:51.325Z,23.67
2018-01-22T12:43:19.709Z,29.43
2018-01-22T12:45:48.066Z,29.50
2018-01-22T12:48:15.686Z,27.00
2018-01-22T12:50:43.954Z,34.50
2018-01-22T12:53:12.266Z,31.70
2018-01-22T12:55:40.558Z,26.80
2018-01-22T12:58:08.844Z,30.10
2018-01-22T13:00:36.349Z,26.53
2018-01-22T13:03:03.877Z,33.40
2018-01-22T13:05:32.233Z,25.67
2018-01-22T13:07:59.856Z,31.63
2018-01-22T13:10:27.367Z,30.10
2018-01-22T13:12:55.030Z,24.03
2018-01-22T13:15:22.570Z,25.00
2018-01-22T13:17:50.095Z,26.70
2018-01-22T13:20:17.592Z,25.93
2018-01-22T13:22:46.020Z,26.57
2018-01-22T13:25:13.548Z,24.13
2018-01-22T13:27:41.867Z,28.00
2018-01-22T13:30:09.397Z,28.87
2018-01-22T13:32:38.479Z,22.87
2018-01-22T13:35:05.980Z,23.50
2018-01-22T13:37:33.535Z,22.63
2018-01-22T13:40:07.005Z,21.10
2018-01-22T13:42:34.651Z,23.30
2018-01-22T13:45:02.991Z,23.10
2018-01-22T13:47:30.534Z,25.43
2018-01-22T13:49:58.130Z,22.33
2018-01-22T13:52:25.820Z,22.03
2018-01-22T13:54:53.535Z,24.00
2018-01-22T13:57:21.833Z,22.57
2018-01-22T13:59:50.856Z,27.90
2018-01-22T14:02:18.451Z,26.03
2018-01-22T14:04:45.990Z,24.87
2018-01-22T14:07:13.573Z,22.60
2018-01-22T14:09:41.458Z,21.20
2018-01-22T14:12:09.732Z,23.67
2018-01-22T14:14:38.653Z,27.93
2018-01-22T14:17:06.900Z,19.33
2018-01-22T14:19:34.968Z,20.13
2018-01-22T14:22:04.777Z,20.53
2018-01-22T14:24:33.214Z,21.83
2018-01-22T14:27:01.055Z,22.90
2018-01-22T14:29:28.612Z,19.40
2018-01-22T14:31:57.928Z,21.93
2018-01-22T14:34:25.534Z,19.20
2018-01-22T14:36:53.850Z,24.77
2018-01-22T14:39:22.052Z,24.20
2018-01-22T14:41:49.636Z,21.93
2018-01-22T14:44:17.176Z,21.80
2018-01-22T14:46:44.745Z,22.60
2018-01-22T14:49:12.567Z,23.47
2018-01-22T14:51:40.105Z,24.97
2018-01-22T14:54:07.670Z,23.23
2018-01-22T14:56:35.176Z,21.60
2018-01-22T14:59:02.832Z,26.40
2018-01-22T15:01:30.362Z,19.77
2018-01-22T15:03:58.673Z,22.10
2018-01-22T15:06:26.263Z,18.90
2018-01-22T15:08:53.821Z,22.43
2018-01-22T15:11:22.199Z,17.90
2018-01-22T15:13:50.818Z,20.60
2018-01-22T15:16:18.389Z,25.83
2018-01-22T15:18:45.948Z,24.50
2018-01-22T15:21:14.449Z,24.00
2018-01-22T15:23:41.988Z,20.63
2018-01-22T15:26:10.332Z,18.73
2018-01-22T15:28:39.155Z,24.63
2018-01-22T15:31:06.740Z,19.67
2018-01-22T15:33:34.306Z,17.37
2018-01-22T15:36:01.818Z,20.03
2018-01-22T15:38:29.390Z,23.23
2018-01-22T15:40:56.919Z,21.30
2018-01-22T15:43:24.461Z,18.00
2018-01-22T15:45:51.958Z,19.13
2018-01-22T15:48:20.298Z,19.60
2018-01-22T15:50:47.801Z,23.97
2018-01-22T15:53:15.371Z,23.37
2018-01-22T15:55:42.938Z,17.10
2018-01-22T15:58:10.652Z,20.90
2018-01-22T16:00:39.013Z,20.57
2018-01-22T16:03:06.667Z,20.63
2018-01-22T16:05:34.215Z,20.40
2018-01-22T16:08:01.918Z,18.27
2018-01-22T16:10:29.493Z,18.90
2018-01-22T16:12:57.127Z,18.20
2018-01-22T16:15:24.624Z,15.70
2018-01-22T16:17:52.596Z,23.57
2018-01-22T16:20:20.130Z,21.00
2018-01-22T16:22:47.662Z,17.90
2018-01-22T16:25:15.230Z,17.83
2018-01-22T16:27:42.766Z,19.53
2018-01-22T16:30:10.307Z,19.10
2018-01-22T16:32:37.916Z,19.83
2018-01-22T16:35:05.488Z,21.33
2018-01-22T16:37:33.004Z,24.67
2018-01-22T16:40:00.745Z,17.90
2018-01-22T16:42:28.283Z,15.77
2018-01-22T16:44:56.618Z,20.37
2018-01-22T16:47:30.022Z,19.83
2018-01-22T16:49:57.606Z,18.97
2018-01-22T16:52:25.202Z,18.73
2018-01-22T16:54:52.763Z,19.63
2018-01-22T16:57:20.304Z,25.33
2018-01-22T16:59:47.918Z,19.80
2018-01-22T17:02:15.852Z,19.77
2018-01-22T17:04:43.500Z,17.37
2018-01-22T17:07:11.122Z,19.23
2018-01-22T17:09:38.867Z,22.17
2018-01-22T17:12:06.409Z,21.97
2018-01-22T17:14:34.758Z,19.83
2018-01-22T17:17:02.318Z,20.73
2018-01-22T17:19:29.942Z,22.57
2018-01-22T17:21:58.272Z,21.03
2018-01-22T17:24:25.811Z,26.60
2018-01-22T17:26:54.128Z,23.10
2018-01-22T17:29:21.666Z,23.27
2018-01-22T17:31:50.704Z,19.20
2018-01-22T17:34:18.237Z,23.23
2018-01-22T17:36:46.011Z,22.27
2018-01-22T17:39:13.502Z,21.00
2018-01-22T17:41:41.804Z,23.90
2018-01-22T17:44:09.550Z,42.87
2018-01-22T17:46:37.914Z,26.20
2018-01-22T17:49:05.451Z,25.60
2018-01-22T17:51:32.975Z,48.53
2018-01-22T17:54:00.618Z,29.70
2018-01-22T17:56:28.191Z,33.90
2018-01-22T17:58:55.747Z,36.37
2018-01-22T18:01:23.291Z,29.53
2018-01-22T18:03:50.835Z,34.53
2018-01-22T18:06:18.339Z,27.90
2018-01-22T18:08:45.935Z,31.90
2018-01-22T18:11:13.477Z,29.57
2018-01-22T18:13:41.193Z,36.17
2018-01-22T18:16:08.824Z,30.53
2018-01-22T18:18:36.356Z,32.13
2018-01-22T18:21:03.901Z,31.60
2018-01-22T18:23:31.825Z,39.60
2018-01-22T18:25:59.479Z,37.17
2018-01-22T18:28:27.019Z,36.87
2018-01-22T18:30:54.569Z,30.90
2018-01-22T18:33:22.361Z,35.53
2018-01-22T18:35:49.903Z,33.97
2018-01-22T18:38:17.482Z,43.93
2018-01-22T18:40:45.087Z,31.63
2018-01-22T18:43:12.629Z,34.40
2018-01-22T18:45:40.241Z,37.83
2018-01-22T18:48:07.869Z,35.87
2018-01-22T18:50:35.421Z,37.43
2018-01-22T18:53:03.865Z,33.97
2018-01-22T18:55:31.533Z,39.93
2018-01-22T18:57:59.161Z,34.43
2018-01-22T19:00:27.462Z,35.00
2018-01-22T19:02:55.779Z,36.23
2018-01-22T19:05:23.308Z,37.33
2018-01-22T19:07:51.706Z,36.70
2018-01-22T19:10:20.043Z,39.60
2018-01-22T19:12:47.676Z,33.87
2018-01-22T19:15:16.165Z,37.67
2018-01-22T19:17:44.585Z,39.60
2018-01-22T19:20:12.220Z,37.50
2018-01-22T19:22:40.609Z,39.57
2018-01-22T19:25:09.081Z,36.40
2018-01-22T19:27:36.712Z,36.10
2018-01-22T19:30:04.314Z,33.47
2018-01-22T19:32:32.725Z,40.40
2018-01-22T19:35:00.350Z,36.23
2018-01-22T19:37:28.767Z,40.90
2018-01-22T19:39:56.518Z,34.03
2018-01-22T19:42:24.081Z,39.07
2018-01-22T19:44:51.779Z,39.17
2018-01-22T19:47:19.559Z,37.93
2018-01-22T19:49:47.301Z,36.53
2018-01-22T19:52:15.908Z,37.40
2018-01-22T19:54:44.109Z,38.23
2018-01-22T19:57:13.716Z,37.87
2018-01-22T19:59:41.323Z,33.27
2018-01-22T20:02:08.958Z,32.60
2018-01-22T20:04:36.651Z,47.93
2018-01-22T20:07:04.212Z,40.83
2018-01-22T20:09:31.798Z,43.80
2018-01-22T20:11:59.360Z,38.87
2018-01-22T20:14:27.564Z,38.67
2018-01-22T20:16:55.305Z,37.40
2018-01-22T20:19:22.968Z,31.17
2018-01-22T20:21:50.522Z,36.70
2018-01-22T20:24:18.279Z,39.73
2018-01-22T20:26:45.972Z,41.33
2018-01-22T20:29:15.271Z,37.87
2018-01-22T20:31:42.983Z,43.57
2018-01-22T20:34:10.677Z,40.00
2018-01-22T20:36:38.257Z,35.20
2018-01-22T20:39:06.308Z,38.00
2018-01-22T20:41:34.110Z,41.90
2018-01-22T20:44:01.727Z,39.17
2018-01-22T20:46:29.336Z,39.47
2018-01-22T20:48:57.090Z,34.17
2018-01-22T20:51:25.521Z,37.70
2018-01-22T20:53:53.126Z,35.20
2018-01-22T20:56:21.557Z,30.53
2018-01-22T20:58:49.253Z,44.30
2018-01-22T21:01:16.915Z,33.87
2018-01-22T21:03:44.461Z,40.83
2018-01-22T21:06:12.802Z,36.30
2018-01-22T21:08:40.568Z,33.50
2018-01-22T21:11:09.124Z,38.60
2018-01-22T21:13:36.671Z,34.60
2018-01-22T21:16:05.048Z,36.90
2018-01-22T21:18:32.614Z,38.97
2018-01-22T21:21:00.249Z,31.60
2018-01-22T21:23:27.811Z,36.00
2018-01-22T21:25:56.160Z,35.87
2018-01-22T21:28:23.696Z,39.03
2018-01-22T21:30:51.362Z,34.30
2018-01-22T21:33:18.919Z,39.30
2018-01-22T21:35:47.262Z,39.20
2018-01-22T21:38:14.863Z,37.07
2018-01-22T21:40:42.494Z,33.27
2018-01-22T21:43:10.121Z,39.97
2018-01-22T21:45:38.498Z,39.30
2018-01-22T21:48:06.033Z,34.60
2018-01-22T21:50:33.628Z,35.10
2018-01-22T21:53:01.222Z,38.80
2018-01-22T21:55:30.513Z,36.33
2018-01-22T21:57:58.831Z,37.07
2018-01-22T22:00:27.184Z,39.20
2018-01-22T22:02:55.596Z,36.40
2018-01-22T22:05:23.160Z,35.43
2018-01-22T22:07:51.051Z,39.07
2018-01-22T22:10:19.379Z,38.93
2018-01-22T22:12:46.887Z,30.60
2018-01-22T22:15:14.428Z,37.93
2018-01-22T22:17:42.081Z,35.27
2018-01-22T22:20:09.636Z,38.90
2018-01-22T22:22:37.926Z,37.10
2018-01-22T22:25:07.459Z,35.83
2018-01-22T22:27:36.400Z,42.23
2018-01-22T22:30:03.943Z,34.67
2018-01-22T22:32:31.523Z,39.97
2018-01-22T22:34:59.066Z,37.97
2018-01-22T22:37:26.673Z,38.33
2018-01-22T22:39:54.199Z,33.30
2018-01-22T22:42:22.519Z,38.07
2018-01-22T22:44:50.110Z,35.17
2018-01-22T22:47:17.658Z,38.60
2018-01-22T22:49:45.843Z,38.00
2018-01-22T22:52:13.515Z,38.30
2018-01-22T22:54:42.220Z,34.40
2018-01-22T22:57:09.788Z,38.77
2018-01-22T22:59:37.318Z,35.63
2018-01-22T23:02:04.925Z,31.93
2018-01-22T23:04:32.446Z,38.97
2018-01-22T23:07:00.494Z,40.03
2018-01-22T23:09:28.924Z,38.63
2018-01-22T23:11:56.578Z,38.80
2018-01-22T23:14:24.105Z,33.70
2018-01-22T23:16:52.394Z,40.50
2018-01-22T23:19:21.363Z,35.47
2018-01-22T23:21:48.881Z,36.63
2018-01-22T23:24:16.547Z,36.50
2018-01-22T23:26:44.822Z,41.13
2018-01-22T23:29:13.231Z,39.43
2018-01-22T23:31:40.849Z,41.17
2018-01-22T23:34:08.478Z,37.07
2018-01-22T23:36:35.994Z,35.30
2018-01-22T23:39:04.356Z,38.17
2018-01-22T23:41:31.856Z,36.13
2018-01-22T23:43:59.392Z,34.90
2018-01-22T23:46:27.574Z,39.90
2018-01-22T23:48:57.076Z,33.57
2018-01-22T23:51:24.561Z,36.63
2018-01-22T23:53:54.295Z,38.20
2018-01-22T23:56:22.692Z,36.60
2018-01-22T23:58:51.225Z,35.03
